Goodfellow Terrace, Missouri
Current Conditions -  °F | °C
As of 2:11 PM on Sunday 25 Jan 2015 (Local Time) from KSTL Reporting Station
Light Rain Light Rain  
Wind Chill: 37°   Ceiling: 600
Heat Index: 45°   Visibility: 4mi
Dew Point: 43°   Wind: 17mph
Humidity: 93%   Direction: 360°N
Pressure: 29.62"   Gusts: 22mph
Location:  38.694°N, 90.256°W
Report Text: KSTL 252011Z 36015G19KT 4SM -RA BR BKN006 OVC010 07/06 A2962 RMK AO2 P0000
Loading
Personal Weather Stations






























Interactive Weather Map New forecast layout! Learn more

10-Day Weather Forecast

Advertisements
Track Severe Weather on mobile